createdAt,value
2018-07-10T05:56:26.865Z,68.30
2018-07-10T05:58:55.154Z,68.40
2018-07-10T06:01:23.401Z,68.60
2018-07-10T06:03:51.625Z,68.10
2018-07-10T06:06:20.180Z,68.40
2018-07-10T06:08:48.417Z,68.40
2018-07-10T06:11:16.670Z,68.90
2018-07-10T06:13:44.893Z,70.30
2018-07-10T06:16:13.651Z,69.50
2018-07-10T06:18:42.131Z,70.20
2018-07-10T06:21:10.376Z,70.70
2018-07-10T06:23:41.496Z,71.50
2018-07-10T06:26:10.266Z,73.60
2018-07-10T06:28:43.642Z,78.30
2018-07-10T06:31:14.281Z,82.00
2018-07-10T06:33:50.762Z,84.30
2018-07-10T06:36:29.001Z,86.40
2018-07-10T06:39:10.224Z,88.30
2018-07-10T06:41:44.062Z,88.80
2018-07-10T06:46:42.349Z,89.90
2018-07-10T06:49:26.851Z,89.30
2018-07-10T06:52:03.152Z,88.60
2018-07-10T06:54:32.735Z,89.70
2018-07-10T06:57:01.046Z,91.00
2018-07-10T06:59:29.285Z,91.70
2018-07-10T07:01:57.542Z,92.10
2018-07-10T07:04:25.773Z,92.00
2018-07-10T07:06:54.031Z,92.30
2018-07-10T07:09:22.302Z,92.40
2018-07-10T07:11:50.557Z,92.70
2018-07-10T07:14:18.789Z,93.00
2018-07-10T07:16:47.046Z,92.80
2018-07-10T07:19:15.306Z,92.50
2018-07-10T07:21:43.565Z,91.70
2018-07-10T07:24:11.798Z,91.80
2018-07-10T07:26:40.058Z,91.70
2018-07-10T07:29:08.293Z,93.00
2018-07-10T07:31:36.541Z,93.40
2018-07-10T07:34:04.781Z,93.60
2018-07-10T07:36:33.005Z,93.80
2018-07-10T07:39:02.029Z,93.90
2018-07-10T07:41:30.256Z,94.10
2018-07-10T07:43:58.618Z,93.70
2018-07-10T07:46:26.781Z,93.10
2018-07-10T07:48:55.061Z,93.00
2018-07-10T07:51:23.304Z,93.20
2018-07-10T07:53:51.714Z,94.10
2018-07-10T07:56:20.245Z,94.40
2018-07-10T07:58:48.513Z,94.60
2018-07-10T08:01:16.754Z,94.80
2018-07-10T08:03:44.997Z,93.90
2018-07-10T08:06:13.253Z,94.10
2018-07-10T08:08:41.502Z,93.90
2018-07-10T08:11:09.834Z,93.70
2018-07-10T08:13:38.099Z,93.90
2018-07-10T08:16:06.342Z,93.60
2018-07-10T08:18:34.601Z,93.40
2018-07-10T08:21:02.870Z,93.40
2018-07-10T08:23:31.489Z,93.20
2018-07-10T08:25:59.709Z,93.60
2018-07-10T08:28:27.976Z,93.10
2018-07-10T08:30:56.221Z,92.80
2018-07-10T08:33:24.556Z,91.90
2018-07-10T08:35:52.749Z,93.50
2018-07-10T08:38:32.485Z,91.70
2018-07-10T08:41:00.715Z,92.30
2018-07-10T08:43:28.976Z,92.70
2018-07-10T08:45:57.222Z,91.90
2018-07-10T08:48:25.473Z,93.60
2018-07-10T08:53:21.721Z,92.20
2018-07-10T08:55:49.962Z,91.80
2018-07-10T08:58:18.316Z,92.40
2018-07-10T09:00:46.649Z,91.60
2018-07-10T09:03:14.982Z,91.70
2018-07-10T09:05:43.213Z,92.00
2018-07-10T09:08:11.496Z,91.00
2018-07-10T09:10:39.738Z,91.20
2018-07-10T09:13:07.981Z,90.40
2018-07-10T09:15:36.226Z,90.00
2018-07-10T09:18:04.490Z,90.30
2018-07-10T09:20:38.236Z,90.10
2018-07-10T09:23:06.512Z,90.00
2018-07-10T09:25:34.760Z,91.00
2018-07-10T09:28:03.027Z,91.50
2018-07-10T09:30:31.261Z,89.50
2018-07-10T09:32:59.508Z,86.60
2018-07-10T09:38:02.337Z,89.30
2018-07-10T09:40:30.630Z,86.40
2018-07-10T09:43:01.495Z,87.00
2018-07-10T09:45:36.088Z,89.50
2018-07-10T09:48:05.297Z,90.70
2018-07-10T09:50:33.569Z,89.70
2018-07-10T09:55:31.272Z,87.10
2018-07-10T09:58:00.478Z,85.50
2018-07-10T10:00:34.215Z,88.30
2018-07-10T10:03:03.149Z,88.60
2018-07-10T10:05:37.098Z,88.30
2018-07-10T10:08:05.337Z,86.90
2018-07-10T10:10:33.620Z,82.70
2018-07-10T10:13:01.858Z,85.20
2018-07-10T10:15:33.637Z,83.90
2018-07-10T10:18:03.743Z,83.40
2018-07-10T10:20:32.003Z,81.90
2018-07-10T10:23:01.717Z,86.70
2018-07-10T10:25:32.381Z,83.10
2018-07-10T10:28:00.645Z,85.60
2018-07-10T10:30:28.964Z,82.50
2018-07-10T10:32:57.568Z,78.00
2018-07-10T10:35:25.827Z,82.40
2018-07-10T10:37:54.061Z,78.70
2018-07-10T10:40:22.312Z,79.10
2018-07-10T10:42:50.827Z,77.30
2018-07-10T10:45:19.089Z,77.80
2018-07-10T10:47:47.326Z,76.50
2018-07-10T10:50:15.595Z,79.60
2018-07-10T10:52:43.824Z,73.30
2018-07-10T10:55:12.083Z,76.20
2018-07-10T10:57:40.585Z,74.60
2018-07-10T11:00:08.840Z,76.90
2018-07-10T11:02:37.114Z,79.40
2018-07-10T11:05:05.351Z,78.00
2018-07-10T11:07:34.385Z,75.60
2018-07-10T11:10:02.957Z,78.10
2018-07-10T11:12:32.268Z,79.90
2018-07-10T11:15:00.953Z,75.00
2018-07-10T11:17:33.404Z,74.20
2018-07-10T11:20:08.761Z,78.80
2018-07-10T11:22:41.010Z,79.90
2018-07-10T11:25:10.237Z,81.00
2018-07-10T11:27:52.329Z,73.80
2018-07-10T11:30:20.626Z,75.80
2018-07-10T11:32:48.861Z,76.80
2018-07-10T11:35:17.125Z,78.30
2018-07-10T11:37:45.356Z,78.80
2018-07-10T11:40:14.257Z,77.70
2018-07-10T11:42:42.566Z,79.50
2018-07-10T11:45:10.842Z,80.10
2018-07-10T11:47:39.090Z,79.30
2018-07-10T11:50:07.351Z,78.60
2018-07-10T11:52:35.822Z,77.10
2018-07-10T11:55:04.080Z,79.10
2018-07-10T11:57:32.321Z,79.50
2018-07-10T12:00:00.605Z,79.90
2018-07-10T12:02:49.709Z,80.90
2018-07-10T12:05:20.269Z,81.40
2018-07-10T12:07:55.066Z,82.80
2018-07-10T12:10:25.280Z,82.90
2018-07-10T12:12:53.986Z,79.30
2018-07-10T12:15:22.981Z,82.60
2018-07-10T12:17:53.986Z,84.50
2018-07-10T12:20:31.298Z,82.70
2018-07-10T12:23:00.299Z,82.90
2018-07-10T12:25:33.609Z,85.30
2018-07-10T12:30:30.537Z,87.40
2018-07-10T12:32:58.808Z,87.00
2018-07-10T12:35:27.117Z,86.70
2018-07-10T12:37:55.340Z,88.90
2018-07-10T12:40:23.585Z,89.20
2018-07-10T12:42:52.800Z,87.90
2018-07-10T12:45:21.085Z,89.40
2018-07-10T12:47:49.314Z,87.60
2018-07-10T12:50:17.575Z,85.10
2018-07-10T12:52:45.829Z,83.40
2018-07-10T12:55:14.612Z,83.30
2018-07-10T12:57:43.865Z,82.90
2018-07-10T13:00:12.398Z,83.60
2018-07-10T13:02:44.777Z,82.80
2018-07-10T13:05:13.978Z,83.80
2018-07-10T13:07:42.397Z,84.90
2018-07-10T13:10:10.720Z,81.60
2018-07-10T13:12:38.996Z,86.70
2018-07-10T13:15:07.418Z,87.90
2018-07-10T13:17:37.175Z,87.80
2018-07-10T13:20:05.504Z,85.30
2018-07-10T13:22:33.749Z,86.80
2018-07-10T13:25:01.990Z,85.50
2018-07-10T13:27:30.265Z,84.40
2018-07-10T13:29:58.492Z,88.20
2018-07-10T13:32:26.744Z,88.50
2018-07-10T13:34:54.969Z,89.90
2018-07-10T13:37:24.225Z,89.30
2018-07-10T13:39:52.490Z,88.40
2018-07-10T13:42:26.525Z,89.70
2018-07-10T13:44:54.749Z,90.30
2018-07-10T13:47:23.003Z,90.70
2018-07-10T13:49:51.231Z,90.30
2018-07-10T13:52:19.473Z,90.10
2018-07-10T13:54:47.713Z,89.90
2018-07-10T13:57:15.958Z,90.10
2018-07-10T13:59:44.204Z,90.10
2018-07-10T14:02:12.492Z,90.10
2018-07-10T14:04:40.739Z,90.50
2018-07-10T14:07:08.994Z,91.00
2018-07-10T14:09:37.297Z,90.00
2018-07-10T14:12:05.942Z,90.90
2018-07-10T14:14:34.184Z,91.50
2018-07-10T14:17:02.445Z,92.80
2018-07-10T14:19:30.681Z,92.90
2018-07-10T14:21:58.949Z,93.10
2018-07-10T14:24:27.205Z,92.60
2018-07-10T14:26:55.466Z,92.10
2018-07-10T14:29:23.695Z,91.30
2018-07-10T14:31:51.965Z,90.90
2018-07-10T14:34:20.216Z,91.60
2018-07-10T14:36:48.465Z,90.90
2018-07-10T14:39:16.709Z,91.90
2018-07-10T14:44:13.024Z,92.60
2018-07-10T14:46:41.238Z,92.20
2018-07-10T14:49:09.651Z,92.30
2018-07-10T14:51:41.857Z,91.60
2018-07-10T14:54:10.657Z,91.80
2018-07-10T14:56:39.121Z,92.00
2018-07-10T14:59:07.701Z,91.30
2018-07-10T15:01:39.174Z,91.10
2018-07-10T15:04:07.658Z,91.80
2018-07-10T15:06:35.905Z,91.20
2018-07-10T15:09:05.791Z,90.90
2018-07-10T15:11:34.051Z,91.20
2018-07-10T15:14:05.643Z,91.30
2018-07-10T15:16:39.374Z,91.10
2018-07-10T15:19:07.663Z,90.90
2018-07-10T15:21:35.974Z,90.50
2018-07-10T15:24:05.441Z,90.90
2018-07-10T15:26:34.213Z,91.00
2018-07-10T15:29:02.482Z,91.90
2018-07-10T15:31:30.733Z,92.00
2018-07-10T15:33:59.469Z,91.00
2018-07-10T15:36:27.736Z,90.90
2018-07-10T15:38:56.312Z,91.40
2018-07-10T15:41:24.597Z,91.80
2018-07-10T15:43:52.885Z,90.60
2018-07-10T15:46:21.133Z,91.20
2018-07-10T15:48:49.385Z,91.50
2018-07-10T15:51:17.629Z,91.40
2018-07-10T15:53:45.918Z,92.30
2018-07-10T15:56:14.161Z,91.20
2018-07-10T15:58:42.467Z,90.90
2018-07-10T16:01:10.690Z,91.30
2018-07-10T16:03:38.953Z,90.70
2018-07-10T16:06:07.231Z,91.00
2018-07-10T16:08:39.181Z,89.70
2018-07-10T16:11:07.439Z,88.00
2018-07-10T16:13:41.301Z,87.90
2018-07-10T16:16:13.109Z,90.40
2018-07-10T16:18:45.886Z,88.20
2018-07-10T16:21:14.127Z,87.80
2018-07-10T16:26:15.868Z,85.90
2018-07-10T16:28:44.564Z,84.20
2018-07-10T16:31:16.719Z,84.60
2018-07-10T16:33:44.998Z,83.90
2018-07-10T16:36:13.321Z,87.10
2018-07-10T16:38:42.596Z,88.00
2018-07-10T16:41:18.705Z,86.30
2018-07-10T16:43:47.572Z,86.80
2018-07-10T16:46:20.704Z,90.20
2018-07-10T16:48:56.293Z,90.70
2018-07-10T16:51:41.876Z,90.30
2018-07-10T16:54:10.125Z,87.50
2018-07-10T16:56:38.361Z,88.30
2018-07-10T16:59:06.654Z,89.60
2018-07-10T17:01:34.896Z,90.00
2018-07-10T17:04:04.107Z,90.00
2018-07-10T17:06:32.347Z,90.60
2018-07-10T17:09:00.606Z,90.30
2018-07-10T17:11:28.861Z,90.40
2018-07-10T17:13:57.110Z,90.00
2018-07-10T17:16:30.154Z,90.00
2018-07-10T17:18:58.481Z,89.90
2018-07-10T17:21:28.166Z,90.60
2018-07-10T17:23:57.654Z,89.20
2018-07-10T17:26:25.972Z,88.00
2018-07-10T17:28:54.651Z,87.80
2018-07-10T17:31:22.892Z,88.90
2018-07-10T17:33:51.131Z,89.30
2018-07-10T17:36:19.419Z,90.00
2018-07-10T17:38:48.429Z,90.50
2018-07-10T17:41:16.674Z,91.10
2018-07-10T17:43:44.927Z,92.10
2018-07-10T17:46:13.169Z,92.60
2018-07-10T17:48:41.405Z,93.00
2018-07-10T17:51:09.671Z,93.00
2018-07-10T17:53:37.912Z,93.30
2018-07-10T17:56:06.181Z,93.50
2018-07-10T17:58:34.413Z,94.00
2018-07-10T18:01:02.718Z,93.50
2018-07-10T18:03:30.940Z,93.40
2018-07-10T18:05:59.190Z,93.40
2018-07-10T18:08:27.456Z,93.50
2018-07-10T18:10:55.700Z,93.80
2018-07-10T18:13:23.938Z,94.30
2018-07-10T18:15:52.281Z,94.40
2018-07-10T18:18:20.556Z,94.40
2018-07-10T18:20:48.813Z,94.30
2018-07-10T18:23:17.066Z,94.50
2018-07-10T18:25:45.361Z,94.70
2018-07-10T18:28:13.609Z,95.00
2018-07-10T18:30:41.879Z,95.10
2018-07-10T18:33:10.134Z,94.90
2018-07-10T18:35:38.398Z,94.70
2018-07-10T18:38:06.629Z,94.80
2018-07-10T18:40:34.888Z,95.00
2018-07-10T18:43:03.123Z,94.90
2018-07-10T18:45:31.381Z,95.60
2018-07-10T18:47:59.613Z,95.50
2018-07-10T18:50:29.039Z,95.80
2018-07-10T18:52:57.326Z,94.90
2018-07-10T18:55:26.461Z,94.70
2018-07-10T18:57:59.890Z,95.40
2018-07-10T19:00:41.545Z,95.20
2018-07-10T19:03:12.346Z,95.80
2018-07-10T19:06:01.087Z,95.80
2018-07-10T19:08:29.333Z,96.10
2018-07-10T19:10:57.612Z,96.20
2018-07-10T19:13:25.886Z,96.70
2018-07-10T19:15:54.137Z,96.20
2018-07-10T19:18:22.733Z,96.60
2018-07-10T19:21:01.741Z,95.70
2018-07-10T19:23:37.029Z,95.60
2018-07-10T19:26:06.277Z,96.50
2018-07-10T19:28:34.513Z,96.60
2018-07-10T19:31:11.178Z,96.30
2018-07-10T19:33:42.353Z,96.40
2018-07-10T19:36:10.685Z,96.60
2018-07-10T19:38:39.016Z,97.20
2018-07-10T19:41:07.280Z,96.80
2018-07-10T19:43:35.888Z,96.90
2018-07-10T19:46:04.160Z,97.00
2018-07-10T19:48:32.545Z,97.20
2018-07-10T19:51:00.833Z,97.30
2018-07-10T19:53:29.105Z,97.20
2018-07-10T19:55:57.356Z,97.20
2018-07-10T19:58:32.497Z,97.10
2018-07-10T20:01:13.859Z,97.70
2018-07-10T20:03:49.281Z,97.70
2018-07-10T20:06:23.734Z,97.80
2018-07-10T20:08:51.977Z,98.00
2018-07-10T20:11:27.137Z,98.10
2018-07-10T20:13:55.380Z,98.00
2018-07-10T20:16:39.296Z,97.50
